createdAt,value
2022-10-01T00:01:47.765Z,10.99
2022-10-01T00:06:50.440Z,11.10
2022-10-01T00:11:53.374Z,11.27
2022-10-01T00:16:57.411Z,11.16
2022-10-01T00:22:00.065Z,11.24
2022-10-01T00:27:02.658Z,11.29
2022-10-01T00:32:06.659Z,11.30
2022-10-01T00:37:10.291Z,11.29
2022-10-01T00:42:19.213Z,11.32
2022-10-01T00:47:27.286Z,11.41
2022-10-01T00:52:32.448Z,11.46
2022-10-01T00:57:35.453Z,11.37
2022-10-01T01:02:39.359Z,11.38
2022-10-01T01:07:45.316Z,11.27
2022-10-01T01:12:56.703Z,11.29
2022-10-01T01:18:05.452Z,11.31
2022-10-01T01:23:23.879Z,11.44
2022-10-01T01:28:31.741Z,11.37
2022-10-01T01:33:37.211Z,11.33
2022-10-01T01:38:47.435Z,11.30
2022-10-01T01:43:53.234Z,11.39
2022-10-01T01:48:57.602Z,11.43
2022-10-01T01:54:00.397Z,11.45
2022-10-01T01:59:04.695Z,11.53
2022-10-01T02:04:09.951Z,11.55
2022-10-01T02:09:18.696Z,11.45
2022-10-01T02:14:28.798Z,11.37
2022-10-01T02:19:35.069Z,11.31
2022-10-01T02:24:40.011Z,11.19
2022-10-01T02:29:44.615Z,11.12
2022-10-01T02:34:49.230Z,11.05
2022-10-01T02:39:52.920Z,11.01
2022-10-01T02:44:58.005Z,10.97
2022-10-01T02:50:01.232Z,10.88
2022-10-01T02:55:06.459Z,10.93
2022-10-01T03:00:12.788Z,10.83
2022-10-01T03:05:15.975Z,10.75
2022-10-01T03:10:18.707Z,10.67
2022-10-01T03:15:22.869Z,10.67
2022-10-01T03:20:26.449Z,10.61
2022-10-01T03:25:29.246Z,10.57
2022-10-01T03:30:34.290Z,10.53
2022-10-01T03:35:36.806Z,10.55
2022-10-01T03:40:39.382Z,10.46
2022-10-01T03:45:43.302Z,10.42
2022-10-01T03:50:54.242Z,10.46
2022-10-01T03:55:56.906Z,10.47
2022-10-01T04:01:00.810Z,10.48
2022-10-01T04:06:03.407Z,10.43
2022-10-01T04:11:06.143Z,10.40
2022-10-01T04:16:10.204Z,10.44
2022-10-01T04:21:15.227Z,10.48
2022-10-01T04:26:18.649Z,10.53
2022-10-01T04:31:25.354Z,10.51
2022-10-01T04:36:28.110Z,10.44
2022-10-01T04:41:31.631Z,10.50
2022-10-01T04:46:36.196Z,10.52
2022-10-01T04:51:38.771Z,10.51
2022-10-01T04:56:41.310Z,10.57
2022-10-01T05:01:45.267Z,10.54
2022-10-01T05:06:47.916Z,10.52
2022-10-01T05:11:52.005Z,10.64
2022-10-01T05:16:55.935Z,10.57
2022-10-01T05:21:58.497Z,10.57
2022-10-01T05:27:01.022Z,10.58
2022-10-01T05:32:04.974Z,10.60
2022-10-01T05:37:08.054Z,10.73
2022-10-01T05:42:10.664Z,10.67
2022-10-01T05:47:15.104Z,10.73
2022-10-01T05:52:17.784Z,10.83
2022-10-01T05:57:20.361Z,10.71
2022-10-01T06:02:24.310Z,10.79
2022-10-01T06:07:27.344Z,10.79
2022-10-01T06:12:29.892Z,10.80
2022-10-01T06:17:34.118Z,10.83
2022-10-01T06:22:36.648Z,10.64
2022-10-01T06:27:40.450Z,10.66
2022-10-01T06:32:44.311Z,10.66
2022-10-01T06:37:46.835Z,10.61
2022-10-01T06:42:51.791Z,10.67
2022-10-01T06:48:02.457Z,10.71
2022-10-01T06:53:05.222Z,10.67
2022-10-01T06:58:09.378Z,10.69
2022-10-01T07:03:15.884Z,10.65
2022-10-01T07:08:18.840Z,10.81
2022-10-01T07:13:21.646Z,10.83
2022-10-01T07:18:25.557Z,10.82
2022-10-01T07:23:28.153Z,10.95
2022-10-01T07:28:30.860Z,10.97
2022-10-01T07:33:34.850Z,11.08
2022-10-01T07:38:37.563Z,11.20
2022-10-01T07:43:42.215Z,11.18
2022-10-01T07:48:47.119Z,11.20
2022-10-01T07:53:50.827Z,11.23
2022-10-01T07:58:55.741Z,11.22
2022-10-01T08:03:59.605Z,11.25
2022-10-01T08:09:02.190Z,11.35
2022-10-01T08:14:05.751Z,11.43
2022-10-01T08:19:09.709Z,11.39
2022-10-01T08:24:12.826Z,11.45
2022-10-01T08:29:21.451Z,11.53
2022-10-01T08:34:25.404Z,11.54
2022-10-01T08:39:27.954Z,11.57
2022-10-01T08:44:33.873Z,11.63
2022-10-01T08:49:38.883Z,11.71
2022-10-01T08:54:43.670Z,11.73
2022-10-01T08:59:48.044Z,11.95
2022-10-01T09:04:58.885Z,11.99
2022-10-01T09:10:16.977Z,12.38
2022-10-01T09:15:25.648Z,12.54
2022-10-01T09:20:34.837Z,12.62
2022-10-01T09:25:38.316Z,12.85
2022-10-01T09:30:43.855Z,12.84
2022-10-01T09:35:49.874Z,13.05
2022-10-01T09:40:54.792Z,13.13
2022-10-01T09:45:57.636Z,13.10
2022-10-01T09:51:04.806Z,13.29
2022-10-01T09:56:13.214Z,13.38
2022-10-01T10:01:24.954Z,13.51
2022-10-01T10:06:30.279Z,13.60
2022-10-01T10:11:33.957Z,13.89
2022-10-01T10:16:38.381Z,14.05
2022-10-01T10:21:51.869Z,14.41
2022-10-01T10:26:57.192Z,14.60
2022-10-01T10:32:00.466Z,14.43
2022-10-01T10:37:06.773Z,14.57
2022-10-01T10:42:09.428Z,14.49
2022-10-01T10:47:14.735Z,14.93
2022-10-01T10:52:25.194Z,14.83
2022-10-01T10:57:29.050Z,15.11
2022-10-01T11:02:33.084Z,15.11
2022-10-01T11:07:37.120Z,14.89
2022-10-01T11:12:56.479Z,15.05
2022-10-01T11:18:21.739Z,15.04
2022-10-01T11:23:49.149Z,15.54
2022-10-01T11:29:08.840Z,15.76
2022-10-01T11:34:37.736Z,15.52
2022-10-01T11:39:43.425Z,15.46
2022-10-01T11:44:49.684Z,15.21
2022-10-01T11:49:57.228Z,15.69
2022-10-01T11:55:19.671Z,15.96
2022-10-01T12:00:26.653Z,15.95
2022-10-01T12:05:32.167Z,16.28
2022-10-01T12:10:39.490Z,16.13
2022-10-01T12:15:45.844Z,16.32
2022-10-01T12:20:50.199Z,16.10
2022-10-01T12:26:00.315Z,15.84
2022-10-01T12:31:08.708Z,15.42
2022-10-01T12:36:15.352Z,15.01
2022-10-01T12:41:30.882Z,14.70
2022-10-01T12:46:40.062Z,14.40
2022-10-01T12:51:44.794Z,14.39
2022-10-01T12:56:54.783Z,14.26
2022-10-01T13:02:04.877Z,14.16
2022-10-01T13:07:23.771Z,14.08
2022-10-01T13:12:42.206Z,13.88
2022-10-01T13:17:49.471Z,13.58
2022-10-01T13:22:55.479Z,14.05
2022-10-01T13:28:04.780Z,14.52
2022-10-01T13:33:23.414Z,14.67
2022-10-01T13:38:31.636Z,14.63
2022-10-01T13:43:36.484Z,14.75
2022-10-01T13:48:46.319Z,14.65
2022-10-01T13:53:52.393Z,14.43
2022-10-01T13:58:56.523Z,14.54
2022-10-01T14:04:08.531Z,14.91
2022-10-01T14:09:14.878Z,14.80
2022-10-01T14:14:40.665Z,14.76
2022-10-01T14:19:46.795Z,14.60
2022-10-01T14:25:16.612Z,14.71
2022-10-01T14:30:23.611Z,14.76
2022-10-01T14:35:30.166Z,14.70
2022-10-01T14:40:35.710Z,14.80
2022-10-01T14:45:50.875Z,14.96
2022-10-01T14:50:56.551Z,15.07
2022-10-01T14:56:01.669Z,15.14
2022-10-01T15:01:06.287Z,15.14
2022-10-01T15:06:15.211Z,15.04
2022-10-01T15:11:21.059Z,14.78
2022-10-01T15:16:26.580Z,14.80
2022-10-01T15:21:33.918Z,15.04
2022-10-01T15:26:36.814Z,14.98
2022-10-01T15:31:41.272Z,14.90
2022-10-01T15:36:44.205Z,14.79
2022-10-01T15:41:52.395Z,14.77
2022-10-01T15:47:16.627Z,14.68
2022-10-01T15:52:36.786Z,14.67
2022-10-01T15:57:39.491Z,14.77
2022-10-01T16:02:45.579Z,14.92
2022-10-01T16:07:49.638Z,14.93
2022-10-01T16:12:52.183Z,14.91
2022-10-01T16:17:57.364Z,14.70
2022-10-01T16:23:32.855Z,14.66
2022-10-01T16:28:36.102Z,14.47
2022-10-01T16:33:40.816Z,14.62
2022-10-01T16:38:43.358Z,14.38
2022-10-01T16:43:46.033Z,14.25
2022-10-01T16:48:51.419Z,14.12
2022-10-01T16:53:54.930Z,13.94
2022-10-01T16:58:57.480Z,13.81
2022-10-01T17:04:01.654Z,13.71
2022-10-01T17:09:04.269Z,13.64
2022-10-01T17:14:08.703Z,13.50
2022-10-01T17:19:14.627Z,13.41
2022-10-01T17:24:17.338Z,13.35
2022-10-01T17:29:19.888Z,13.33
2022-10-01T17:34:24.058Z,13.30
2022-10-01T17:39:26.927Z,13.33
2022-10-01T17:44:29.552Z,13.35
2022-10-01T17:49:33.426Z,13.38
2022-10-01T17:54:36.946Z,13.34
2022-10-01T17:59:39.659Z,13.34
2022-10-01T18:04:44.171Z,13.50
2022-10-01T18:09:46.824Z,13.15
2022-10-01T18:14:49.908Z,12.76
2022-10-01T18:19:54.335Z,12.64
2022-10-01T18:24:57.031Z,12.47
2022-10-01T18:29:59.554Z,12.47
2022-10-01T18:35:05.280Z,12.33
2022-10-01T18:40:09.786Z,12.25
2022-10-01T18:45:18.066Z,12.25
2022-10-01T18:50:27.670Z,12.26
2022-10-01T18:55:45.334Z,12.14
2022-10-01T19:00:53.371Z,12.05
2022-10-01T19:06:23.635Z,12.06
2022-10-01T19:11:30.242Z,12.00
2022-10-01T19:16:41.890Z,11.88
2022-10-01T19:21:51.209Z,11.82
2022-10-01T19:27:00.525Z,11.70
2022-10-01T19:32:05.116Z,11.66
2022-10-01T19:37:13.647Z,11.52
2022-10-01T19:42:21.115Z,11.52
2022-10-01T19:47:31.735Z,11.39
2022-10-01T19:52:38.164Z,11.36
2022-10-01T19:57:41.094Z,11.29
2022-10-01T20:02:49.749Z,11.31
2022-10-01T20:08:00.130Z,11.26
2022-10-01T20:13:14.290Z,11.15
2022-10-01T20:18:27.966Z,11.08
2022-10-01T20:23:40.126Z,11.13
2022-10-01T20:28:51.898Z,11.16
2022-10-01T20:34:01.414Z,11.19
2022-10-01T20:39:10.348Z,11.23
2022-10-01T20:44:16.276Z,11.28
2022-10-01T20:49:24.059Z,11.21
2022-10-01T20:54:33.162Z,11.15
2022-10-01T20:59:38.579Z,11.19
2022-10-01T21:04:44.776Z,11.16
2022-10-01T21:09:51.451Z,11.20
2022-10-01T21:14:55.337Z,11.19
2022-10-01T21:20:06.484Z,11.19
2022-10-01T21:25:17.743Z,11.20
2022-10-01T21:30:21.327Z,11.23
2022-10-01T21:35:31.433Z,11.23
2022-10-01T21:40:47.473Z,11.27
2022-10-01T21:45:53.525Z,11.27
2022-10-01T21:50:57.972Z,11.30
2022-10-01T21:56:10.983Z,11.45
2022-10-01T22:01:17.951Z,11.53
2022-10-01T22:06:24.632Z,11.66
2022-10-01T22:11:31.723Z,11.64
2022-10-01T22:16:39.758Z,11.50
2022-10-01T22:21:45.191Z,11.40
2022-10-01T22:26:54.182Z,11.33
2022-10-01T22:32:00.086Z,11.19
2022-10-01T22:37:05.629Z,11.14
2022-10-01T22:42:11.823Z,11.18
2022-10-01T22:47:40.538Z,10.93
2022-10-01T22:52:51.246Z,10.95
2022-10-01T22:58:06.135Z,11.06
2022-10-01T23:03:19.069Z,10.87
2022-10-01T23:08:28.842Z,10.93
2022-10-01T23:13:37.830Z,10.93
2022-10-01T23:18:45.970Z,10.84
2022-10-01T23:23:56.736Z,10.73
2022-10-01T23:29:13.018Z,10.70
2022-10-01T23:34:23.058Z,10.65
2022-10-01T23:39:41.882Z,10.51
2022-10-01T23:44:50.002Z,10.50
2022-10-01T23:49:54.766Z,10.57
2022-10-01T23:55:21.084Z,10.36
